createdAt,value
2023-02-18T00:01:24.576Z,21.17
2023-02-18T00:03:52.220Z,19.33
2023-02-18T00:06:25.645Z,20.95
2023-02-18T00:08:52.981Z,20.40
2023-02-18T00:11:21.333Z,22.50
2023-02-18T00:13:56.039Z,23.05
2023-02-18T00:16:23.930Z,22.40
2023-02-18T00:18:50.995Z,21.65
2023-02-18T00:21:17.895Z,20.10
2023-02-18T00:23:44.584Z,22.60
2023-02-18T00:26:14.720Z,20.63
2023-02-18T00:28:42.158Z,19.42
2023-02-18T00:31:17.340Z,20.70
2023-02-18T00:33:44.417Z,21.20
2023-02-18T00:36:14.548Z,21.40
2023-02-18T00:38:48.512Z,22.98
2023-02-18T00:41:15.948Z,22.67
2023-02-18T00:43:43.489Z,20.90
2023-02-18T00:46:11.002Z,22.67
2023-02-18T00:48:37.997Z,19.42
2023-02-18T00:51:06.611Z,21.63
2023-02-18T00:53:33.797Z,21.50
2023-02-18T00:56:01.276Z,22.48
2023-02-18T00:58:27.956Z,20.30
2023-02-18T01:00:55.771Z,20.67
2023-02-18T01:03:23.762Z,20.80
2023-02-18T01:05:51.196Z,19.63
2023-02-18T01:08:19.206Z,20.02
2023-02-18T01:10:47.594Z,19.70
2023-02-18T01:13:15.531Z,19.52
2023-02-18T01:15:43.264Z,19.27
2023-02-18T01:18:10.590Z,19.60
2023-02-18T01:20:39.326Z,18.42
2023-02-18T01:23:08.147Z,18.33
2023-02-18T01:25:35.192Z,17.77
2023-02-18T01:28:02.242Z,20.73
2023-02-18T01:30:29.078Z,20.17
2023-02-18T01:32:56.619Z,19.95
2023-02-18T01:35:24.265Z,21.05
2023-02-18T01:37:51.528Z,19.77
2023-02-18T01:40:22.732Z,22.00
2023-02-18T01:42:49.411Z,20.65
2023-02-18T01:45:35.324Z,21.13
2023-02-18T01:48:07.258Z,22.10
2023-02-18T01:50:38.595Z,21.90
2023-02-18T01:53:06.146Z,21.52
2023-02-18T01:55:34.540Z,21.65
2023-02-18T01:58:02.586Z,21.88
2023-02-18T02:00:29.772Z,23.02
2023-02-18T02:02:56.599Z,22.25
2023-02-18T02:05:23.226Z,22.15
2023-02-18T02:07:52.930Z,22.65
2023-02-18T02:10:20.367Z,22.45
2023-02-18T02:12:59.062Z,23.42
2023-02-18T02:15:39.858Z,23.73
2023-02-18T02:18:15.415Z,21.48
2023-02-18T02:21:03.751Z,22.90
2023-02-18T02:23:48.890Z,20.73
2023-02-18T02:26:52.363Z,20.93
2023-02-18T02:29:24.045Z,20.60
2023-02-18T02:32:20.855Z,19.65
2023-02-18T02:34:57.719Z,19.33
2023-02-18T02:38:15.456Z,18.73
2023-02-18T02:40:47.421Z,19.33
2023-02-18T02:43:31.657Z,19.05
2023-02-18T02:46:09.589Z,18.83
2023-02-18T02:48:58.186Z,19.17
2023-02-18T02:51:40.526Z,19.08
2023-02-18T02:54:25.316Z,18.15
2023-02-18T02:57:06.241Z,19.92
2023-02-18T02:59:37.974Z,19.30
2023-02-18T03:02:40.415Z,19.33
2023-02-18T03:05:25.220Z,20.13
2023-02-18T03:08:05.190Z,21.60
2023-02-18T03:10:32.326Z,21.88
2023-02-18T03:13:23.876Z,20.75
2023-02-18T03:15:50.988Z,21.35
2023-02-18T03:18:32.617Z,20.45
2023-02-18T03:21:25.406Z,21.90
2023-02-18T03:24:03.441Z,20.25
2023-02-18T03:26:32.229Z,20.90
2023-02-18T03:29:02.957Z,20.98
2023-02-18T03:31:33.538Z,22.40
2023-02-18T03:34:06.552Z,22.85
2023-02-18T03:36:34.860Z,21.55
2023-02-18T03:39:07.617Z,21.45
2023-02-18T03:41:35.194Z,21.83
2023-02-18T03:44:08.075Z,21.60
2023-02-18T03:46:36.916Z,21.50
2023-02-18T03:49:04.372Z,19.85
2023-02-18T03:51:31.595Z,19.38
2023-02-18T03:53:58.274Z,21.33
2023-02-18T03:56:24.999Z,21.17
2023-02-18T03:58:51.587Z,20.15
2023-02-18T04:01:18.422Z,19.27
2023-02-18T04:03:47.778Z,20.85
2023-02-18T04:06:14.504Z,19.88
2023-02-18T04:08:41.230Z,20.45
2023-02-18T04:11:07.814Z,19.95
2023-02-18T04:13:34.553Z,20.83
2023-02-18T04:16:01.309Z,20.35
2023-02-18T04:18:27.899Z,19.73
2023-02-18T04:20:54.599Z,21.23
2023-02-18T04:23:21.399Z,20.55
2023-02-18T04:25:48.367Z,22.30
2023-02-18T04:28:16.904Z,22.55
2023-02-18T04:30:47.694Z,20.83
2023-02-18T04:33:14.781Z,21.13
2023-02-18T04:35:42.049Z,22.15
2023-02-18T04:38:10.569Z,19.33
2023-02-18T04:40:37.391Z,19.98
2023-02-18T04:43:04.276Z,20.33
2023-02-18T04:45:30.998Z,18.67
2023-02-18T04:47:57.623Z,19.08
2023-02-18T04:50:24.366Z,20.75
2023-02-18T04:52:51.146Z,21.50
2023-02-18T04:55:17.836Z,20.70
2023-02-18T04:57:44.473Z,19.60
2023-02-18T05:00:15.429Z,21.65
2023-02-18T05:02:42.171Z,22.15
2023-02-18T05:05:08.959Z,22.38
2023-02-18T05:07:36.156Z,20.48
2023-02-18T05:10:03.877Z,20.30
2023-02-18T05:12:30.526Z,21.42
2023-02-18T05:14:57.115Z,22.95
2023-02-18T05:17:23.805Z,21.58
2023-02-18T05:19:50.338Z,23.20
2023-02-18T05:22:17.030Z,22.52
2023-02-18T05:24:43.617Z,22.40
2023-02-18T05:27:10.442Z,23.20
2023-02-18T05:29:37.181Z,21.25
2023-02-18T05:32:04.009Z,22.17
2023-02-18T05:34:30.631Z,23.17
2023-02-18T05:36:57.441Z,22.20
2023-02-18T05:39:24.065Z,20.83
2023-02-18T05:41:50.718Z,22.35
2023-02-18T05:44:33.460Z,23.05
2023-02-18T05:47:05.937Z,21.75
2023-02-18T05:49:34.169Z,22.02
2023-02-18T05:52:01.344Z,20.88
2023-02-18T05:54:28.626Z,19.40
2023-02-18T05:56:55.481Z,21.73
2023-02-18T05:59:22.954Z,20.20
2023-02-18T06:01:50.302Z,22.40
2023-02-18T06:04:17.219Z,19.95
2023-02-18T06:06:44.201Z,18.80
2023-02-18T06:09:10.982Z,18.90
2023-02-18T06:11:38.088Z,19.08
2023-02-18T06:14:05.636Z,18.73
2023-02-18T06:16:32.687Z,18.55
2023-02-18T06:18:59.478Z,17.35
2023-02-18T06:21:26.103Z,20.77
2023-02-18T06:23:52.735Z,18.92
2023-02-18T06:26:19.442Z,19.60
2023-02-18T06:28:46.357Z,18.67
2023-02-18T06:31:13.338Z,20.02
2023-02-18T06:33:40.095Z,19.95
2023-02-18T06:36:11.689Z,19.33
2023-02-18T06:38:43.094Z,20.15
2023-02-18T06:41:11.395Z,20.58
2023-02-18T06:43:38.514Z,20.13
2023-02-18T06:46:06.006Z,19.40
2023-02-18T06:48:33.460Z,19.58
2023-02-18T06:51:00.162Z,20.35
2023-02-18T06:53:26.894Z,20.90
2023-02-18T06:55:53.665Z,20.88
2023-02-18T06:58:20.274Z,22.42
2023-02-18T07:00:46.994Z,20.20
2023-02-18T07:03:15.041Z,20.98
2023-02-18T07:05:42.357Z,21.20
2023-02-18T07:08:09.838Z,21.75
2023-02-18T07:10:36.854Z,23.20
2023-02-18T07:13:03.618Z,22.98
2023-02-18T07:15:30.453Z,23.50
2023-02-18T07:17:57.165Z,21.20
2023-02-18T07:20:25.156Z,20.10
2023-02-18T07:22:52.130Z,20.88
2023-02-18T07:25:20.558Z,21.38
2023-02-18T07:27:48.933Z,24.25
2023-02-18T07:30:16.051Z,23.88
2023-02-18T07:32:43.465Z,22.80
2023-02-18T07:35:14.656Z,22.25
2023-02-18T07:37:48.465Z,23.77
2023-02-18T07:40:18.798Z,23.15
2023-02-18T07:42:45.700Z,22.20
2023-02-18T07:45:13.101Z,23.42
2023-02-18T07:47:40.031Z,22.77
2023-02-18T07:50:07.509Z,22.70
2023-02-18T07:52:34.405Z,22.58
2023-02-18T07:55:01.061Z,22.77
2023-02-18T07:57:27.797Z,22.88
2023-02-18T07:59:54.369Z,23.25
2023-02-18T08:02:22.984Z,23.33
2023-02-18T08:04:49.809Z,21.33
2023-02-18T08:07:19.193Z,22.70
2023-02-18T08:09:45.929Z,22.23
2023-02-18T08:12:12.664Z,22.17
2023-02-18T08:14:39.602Z,22.70
2023-02-18T08:17:06.329Z,20.38
2023-02-18T08:19:32.932Z,19.55
2023-02-18T08:22:02.790Z,19.58
2023-02-18T08:24:29.414Z,19.83
2023-02-18T08:27:00.790Z,19.63
2023-02-18T08:29:28.144Z,20.13
2023-02-18T08:31:57.182Z,20.13
2023-02-18T08:34:23.905Z,20.35
2023-02-18T08:36:50.559Z,22.77
2023-02-18T08:39:17.306Z,22.67
2023-02-18T08:41:44.075Z,21.30
2023-02-18T08:44:11.032Z,22.20
2023-02-18T08:46:37.744Z,20.23
2023-02-18T08:49:05.773Z,22.08
2023-02-18T08:51:32.951Z,22.23
2023-02-18T08:53:59.578Z,21.63
2023-02-18T08:56:26.299Z,21.70
2023-02-18T08:58:53.027Z,21.92
2023-02-18T09:01:20.886Z,23.95
2023-02-18T09:03:48.695Z,22.88
2023-02-18T09:06:16.475Z,24.17
2023-02-18T09:08:45.170Z,21.60
2023-02-18T09:11:12.802Z,21.25
2023-02-18T09:13:40.659Z,22.55
2023-02-18T09:16:12.468Z,22.65
2023-02-18T09:18:39.755Z,20.90
2023-02-18T09:21:09.573Z,23.40
2023-02-18T09:23:37.924Z,22.35
2023-02-18T09:26:07.358Z,21.35
2023-02-18T09:28:35.057Z,21.67
2023-02-18T09:31:17.043Z,21.23
2023-02-18T09:33:47.574Z,20.85
2023-02-18T09:36:14.449Z,24.38
2023-02-18T09:38:41.380Z,25.98
2023-02-18T09:41:15.831Z,25.80
2023-02-18T09:43:48.229Z,24.92
2023-02-18T09:46:21.697Z,25.60
2023-02-18T09:48:49.175Z,24.27
2023-02-18T09:51:17.136Z,25.00
2023-02-18T09:53:45.383Z,26.13
2023-02-18T09:56:20.777Z,29.13
2023-02-18T09:58:49.074Z,29.67
2023-02-18T10:01:38.328Z,32.13
2023-02-18T10:04:15.209Z,32.08
2023-02-18T10:06:43.410Z,30.02
2023-02-18T10:09:19.826Z,31.15
2023-02-18T10:11:51.375Z,31.73
2023-02-18T10:14:18.949Z,33.20
2023-02-18T10:16:47.417Z,32.35
2023-02-18T10:19:23.285Z,31.67
2023-02-18T10:21:51.937Z,33.08
2023-02-18T10:24:30.190Z,32.78
2023-02-18T10:26:57.573Z,32.75
2023-02-18T10:29:25.255Z,31.88
2023-02-18T10:32:16.295Z,31.63
2023-02-18T10:34:49.671Z,32.08
2023-02-18T10:37:37.866Z,32.38
2023-02-18T10:40:16.833Z,28.98
2023-02-18T10:43:04.020Z,31.70
2023-02-18T10:45:45.790Z,31.27
2023-02-18T10:48:24.632Z,30.88
2023-02-18T10:50:51.370Z,31.65
2023-02-18T10:53:29.941Z,29.38
2023-02-18T10:55:58.873Z,29.52
2023-02-18T10:58:27.431Z,28.90
2023-02-18T11:00:54.612Z,29.10
2023-02-18T11:03:27.092Z,29.55
2023-02-18T11:05:56.920Z,31.05
2023-02-18T11:08:28.975Z,29.35
2023-02-18T11:10:56.585Z,30.30
2023-02-18T11:13:28.892Z,29.55
2023-02-18T11:16:02.055Z,29.13
2023-02-18T11:18:40.891Z,30.08
2023-02-18T11:21:37.607Z,30.17
2023-02-18T11:24:15.032Z,31.73
2023-02-18T11:26:44.319Z,30.63
2023-02-18T11:29:31.991Z,33.40
2023-02-18T11:31:59.970Z,31.08
2023-02-18T11:34:31.143Z,30.55
2023-02-18T11:37:13.323Z,31.77
2023-02-18T11:39:45.562Z,31.63
2023-02-18T11:42:15.227Z,29.67
2023-02-18T11:44:49.536Z,29.30
2023-02-18T11:47:16.213Z,29.17
2023-02-18T11:49:44.554Z,30.83
2023-02-18T11:52:34.280Z,31.70
2023-02-18T11:55:01.676Z,32.80
2023-02-18T11:57:29.377Z,31.27
2023-02-18T11:59:57.325Z,32.85
2023-02-18T12:02:30.034Z,32.83
2023-02-18T12:05:03.567Z,35.38
2023-02-18T12:07:35.404Z,34.92
2023-02-18T12:10:14.981Z,33.97
2023-02-18T12:12:47.103Z,34.00
2023-02-18T12:15:23.782Z,33.92
2023-02-18T12:18:11.299Z,33.30
2023-02-18T12:20:54.764Z,32.97
2023-02-18T12:23:37.741Z,30.98
2023-02-18T12:26:22.546Z,33.17
2023-02-18T12:29:31.849Z,31.23
2023-02-18T12:32:25.218Z,33.97
2023-02-18T12:35:15.765Z,30.35
2023-02-18T12:37:59.882Z,31.98
2023-02-18T12:40:50.509Z,30.95
2023-02-18T12:43:23.034Z,32.50
2023-02-18T12:45:59.147Z,31.05
2023-02-18T12:48:57.678Z,30.63
2023-02-18T12:51:53.244Z,27.35
2023-02-18T12:54:39.729Z,28.33
2023-02-18T12:57:24.380Z,29.30
2023-02-18T12:59:53.726Z,29.38
2023-02-18T13:02:54.358Z,28.67
2023-02-18T13:05:44.478Z,31.52
2023-02-18T13:08:19.913Z,31.90
2023-02-18T13:11:15.101Z,30.05
2023-02-18T13:14:10.917Z,29.35
2023-02-18T13:16:39.602Z,26.92
2023-02-18T13:19:18.365Z,27.92
2023-02-18T13:21:48.399Z,27.33
2023-02-18T13:24:27.355Z,27.80
2023-02-18T13:27:04.036Z,27.23
2023-02-18T13:29:39.699Z,26.98
2023-02-18T13:32:43.901Z,27.83
2023-02-18T13:35:13.287Z,26.88
2023-02-18T13:37:55.036Z,27.23
2023-02-18T13:40:25.632Z,26.17
2023-02-18T13:42:53.416Z,26.80
2023-02-18T13:45:24.748Z,26.88
2023-02-18T13:47:51.889Z,26.10
2023-02-18T13:50:27.348Z,23.90
2023-02-18T13:55:58.427Z,25.00
2023-02-18T13:58:25.059Z,25.02
2023-02-18T14:01:21.169Z,23.63
2023-02-18T14:03:47.811Z,24.50
2023-02-18T14:06:17.088Z,26.30
2023-02-18T14:08:44.883Z,27.02
2023-02-18T14:11:11.392Z,25.60
2023-02-18T14:13:42.733Z,25.35
2023-02-18T14:16:10.924Z,26.75
2023-02-18T14:18:40.693Z,28.27
2023-02-18T14:21:13.020Z,27.27
2023-02-18T14:23:51.595Z,27.83
2023-02-18T14:26:25.184Z,29.05
2023-02-18T14:28:59.876Z,27.42
2023-02-18T14:31:41.316Z,25.30
2023-02-18T14:34:32.539Z,25.63
2023-02-18T14:37:10.892Z,23.85
2023-02-18T14:39:59.151Z,23.83
2023-02-18T14:43:25.312Z,24.23
2023-02-18T14:46:19.904Z,22.98
2023-02-18T14:49:04.959Z,21.58
2023-02-18T14:51:34.153Z,22.02
2023-02-18T14:54:13.584Z,23.15
2023-02-18T14:56:56.409Z,23.58
2023-02-18T14:59:31.616Z,25.35
2023-02-18T15:01:58.362Z,27.95
2023-02-18T15:04:26.306Z,27.02
2023-02-18T15:07:01.915Z,27.23
2023-02-18T15:09:29.065Z,26.27
2023-02-18T15:12:05.771Z,25.30
2023-02-18T15:14:36.967Z,25.75
2023-02-18T15:17:05.573Z,24.38
2023-02-18T15:19:41.101Z,24.83
2023-02-18T15:22:17.179Z,32.92
2023-02-18T15:24:44.364Z,29.27
2023-02-18T15:27:16.809Z,27.02
2023-02-18T15:29:43.743Z,26.58
2023-02-18T15:32:20.323Z,24.50
2023-02-18T15:34:58.013Z,25.52
2023-02-18T15:37:24.762Z,26.20
2023-02-18T15:39:51.560Z,26.60
2023-02-18T15:42:28.812Z,23.90
2023-02-18T15:45:15.458Z,25.73
2023-02-18T15:47:48.066Z,23.67
2023-02-18T15:50:25.185Z,26.17
2023-02-18T15:52:54.645Z,28.30
2023-02-18T15:55:32.506Z,27.27
2023-02-18T15:58:05.310Z,26.98
2023-02-18T16:00:39.442Z,26.30
2023-02-18T16:03:16.846Z,27.52
2023-02-18T16:05:43.499Z,28.23
2023-02-18T16:08:26.125Z,27.10
2023-02-18T16:10:58.169Z,26.95
2023-02-18T16:13:26.927Z,26.42
2023-02-18T16:15:53.765Z,25.25
2023-02-18T16:18:35.177Z,26.33
2023-02-18T16:21:20.237Z,26.08
2023-02-18T16:24:01.616Z,25.97
2023-02-18T16:26:28.293Z,24.08
2023-02-18T16:29:00.051Z,26.65
2023-02-18T16:31:26.916Z,26.45
2023-02-18T16:33:53.596Z,27.88
2023-02-18T16:36:22.693Z,27.88
2023-02-18T16:38:49.367Z,26.23
2023-02-18T16:41:16.249Z,26.27
2023-02-18T16:43:43.125Z,25.75
2023-02-18T16:46:22.825Z,24.70
2023-02-18T16:48:51.783Z,26.33
2023-02-18T16:51:26.149Z,26.77
2023-02-18T16:53:52.891Z,26.15
2023-02-18T16:56:25.766Z,25.40
2023-02-18T16:58:52.597Z,23.67
2023-02-18T17:01:44.140Z,26.98
2023-02-18T17:04:13.536Z,27.70
2023-02-18T17:06:40.777Z,24.65
2023-02-18T17:09:17.024Z,25.63
2023-02-18T17:11:45.937Z,23.50
2023-02-18T17:14:20.201Z,25.58
2023-02-18T17:16:48.679Z,23.05
2023-02-18T17:19:16.043Z,21.30
2023-02-18T17:21:43.704Z,24.17
2023-02-18T17:24:14.411Z,25.63
2023-02-18T17:26:41.495Z,26.90
2023-02-18T17:29:08.285Z,25.50
2023-02-18T17:31:47.427Z,25.38
2023-02-18T17:34:20.972Z,24.13
2023-02-18T17:36:47.691Z,23.48
2023-02-18T17:39:17.284Z,23.75
2023-02-18T17:41:44.576Z,24.75
2023-02-18T17:44:22.063Z,24.55
2023-02-18T17:46:52.402Z,23.20
2023-02-18T17:49:19.310Z,22.48
2023-02-18T17:51:45.997Z,25.30
2023-02-18T17:54:14.721Z,22.83
2023-02-18T17:56:41.917Z,21.70
2023-02-18T17:59:08.785Z,22.52
2023-02-18T18:01:35.553Z,24.05
2023-02-18T18:04:02.348Z,23.15
2023-02-18T18:06:29.234Z,21.48
2023-02-18T18:08:55.993Z,23.13
2023-02-18T18:11:24.676Z,20.80
2023-02-18T18:13:52.999Z,21.20
2023-02-18T18:16:20.566Z,21.50
2023-02-18T18:18:47.382Z,22.30
2023-02-18T18:21:29.366Z,21.17
2023-02-18T18:23:55.953Z,23.85
2023-02-18T18:26:22.707Z,25.30
2023-02-18T18:28:49.493Z,23.95
2023-02-18T18:31:20.722Z,25.35
2023-02-18T18:33:53.300Z,26.38
2023-02-18T18:36:21.733Z,23.83
2023-02-18T18:38:48.417Z,22.98
2023-02-18T18:41:21.542Z,22.75
2023-02-18T18:43:49.534Z,23.67
2023-02-18T18:46:16.381Z,22.95
2023-02-18T18:48:43.108Z,22.17
2023-02-18T18:51:27.342Z,24.00
2023-02-18T18:53:54.185Z,22.15
2023-02-18T18:56:21.917Z,20.25
2023-02-18T18:58:49.534Z,22.02
2023-02-18T19:01:23.185Z,21.05
2023-02-18T19:03:50.088Z,19.02
2023-02-18T19:06:17.524Z,20.23
2023-02-18T19:08:45.573Z,19.40
2023-02-18T19:11:12.865Z,19.88
2023-02-18T19:13:40.330Z,20.63
2023-02-18T19:16:26.589Z,18.38
2023-02-18T19:18:54.279Z,20.08
2023-02-18T19:21:20.910Z,22.42
2023-02-18T19:23:47.886Z,19.58
2023-02-18T19:26:16.714Z,21.05
2023-02-18T19:28:44.896Z,20.50
2023-02-18T19:31:12.022Z,21.20
2023-02-18T19:33:39.334Z,21.10
2023-02-18T19:36:10.931Z,22.10
2023-02-18T19:38:37.817Z,21.48
2023-02-18T19:41:12.783Z,21.85
2023-02-18T19:43:44.006Z,21.63
2023-02-18T19:46:17.389Z,22.10
2023-02-18T19:48:49.466Z,22.20
2023-02-18T19:51:16.314Z,32.20
2023-02-18T19:53:43.005Z,22.08
2023-02-18T19:56:09.773Z,21.70
2023-02-18T19:58:40.095Z,22.70
2023-02-18T20:01:17.635Z,22.80
2023-02-18T20:03:44.434Z,23.48
2023-02-18T20:06:19.141Z,25.27
2023-02-18T20:08:46.637Z,22.85
2023-02-18T20:11:13.285Z,23.10
2023-02-18T20:13:40.236Z,24.75
2023-02-18T20:16:08.700Z,22.77
2023-02-18T20:18:36.101Z,22.60
2023-02-18T20:21:02.852Z,23.80
2023-02-18T20:23:29.465Z,24.55
2023-02-18T20:25:56.141Z,24.25
2023-02-18T20:28:22.842Z,22.98
2023-02-18T20:30:49.407Z,22.75
2023-02-18T20:33:16.114Z,22.70
2023-02-18T20:35:42.687Z,22.98
2023-02-18T20:38:09.336Z,23.48
2023-02-18T20:40:36.009Z,23.70
2023-02-18T20:43:02.811Z,23.48
2023-02-18T20:45:29.507Z,22.55
2023-02-18T20:47:56.401Z,22.05
2023-02-18T20:50:23.041Z,22.52
2023-02-18T20:52:49.682Z,20.70
2023-02-18T20:55:16.389Z,21.08
2023-02-18T20:57:43.158Z,20.55
2023-02-18T21:00:10.519Z,22.38
2023-02-18T21:02:37.204Z,21.30
2023-02-18T21:05:04.122Z,23.30
2023-02-18T21:07:30.924Z,22.48
2023-02-18T21:09:57.521Z,21.95
2023-02-18T21:12:24.255Z,21.52
2023-02-18T21:14:50.840Z,22.83
2023-02-18T21:17:17.492Z,23.95
2023-02-18T21:19:44.153Z,24.67
2023-02-18T21:22:10.834Z,23.75
2023-02-18T21:24:37.485Z,24.63
2023-02-18T21:27:04.340Z,24.48
2023-02-18T21:29:31.081Z,25.23
2023-02-18T21:31:57.958Z,24.80
2023-02-18T21:34:26.030Z,26.08
2023-02-18T21:36:52.672Z,25.30
2023-02-18T21:39:19.260Z,25.13
2023-02-18T21:41:45.985Z,24.45
2023-02-18T21:44:12.544Z,24.52
2023-02-18T21:46:39.664Z,24.95
2023-02-18T21:49:09.403Z,24.40
2023-02-18T21:51:57.470Z,24.38
2023-02-18T21:54:37.443Z,23.95
2023-02-18T21:57:06.118Z,22.83
2023-02-18T21:59:34.362Z,25.10
2023-02-18T22:02:02.330Z,24.88
2023-02-18T22:04:30.919Z,25.67
2023-02-18T22:06:58.359Z,23.35
2023-02-18T22:09:25.974Z,23.50
2023-02-18T22:11:52.702Z,20.58
2023-02-18T22:14:19.284Z,23.55
2023-02-18T22:16:46.104Z,22.20
2023-02-18T22:19:14.117Z,22.85
2023-02-18T22:21:41.498Z,21.98
2023-02-18T22:24:08.973Z,21.13
2023-02-18T22:26:35.688Z,20.90
2023-02-18T22:29:02.535Z,19.92
2023-02-18T22:31:31.271Z,20.42
2023-02-18T22:33:59.493Z,20.92
2023-02-18T22:36:27.685Z,20.13
2023-02-18T22:38:54.526Z,20.65
2023-02-18T22:41:23.578Z,21.17
2023-02-18T22:44:11.829Z,19.85
2023-02-18T22:46:39.360Z,19.75
2023-02-18T22:49:07.326Z,20.05
2023-02-18T22:51:37.833Z,19.73
2023-02-18T22:54:12.289Z,20.25
2023-02-18T22:56:39.186Z,18.33
2023-02-18T22:59:06.096Z,18.27
2023-02-18T23:01:38.962Z,19.17
2023-02-18T23:04:17.127Z,17.92
2023-02-18T23:06:46.028Z,18.17
2023-02-18T23:09:15.757Z,18.08
2023-02-18T23:11:42.671Z,17.98
2023-02-18T23:14:18.708Z,16.40
2023-02-18T23:17:06.171Z,15.68
2023-02-18T23:19:33.556Z,15.73
2023-02-18T23:22:00.259Z,15.05
2023-02-18T23:24:26.995Z,15.55
2023-02-18T23:26:53.619Z,14.55
2023-02-18T23:29:20.909Z,16.05
2023-02-18T23:31:47.802Z,14.60
2023-02-18T23:34:16.318Z,15.48
2023-02-18T23:36:43.371Z,15.02
2023-02-18T23:39:12.012Z,14.40
2023-02-18T23:41:38.643Z,13.95
2023-02-18T23:44:07.367Z,14.40
2023-02-18T23:46:34.726Z,12.93
2023-02-18T23:49:01.707Z,13.25
2023-02-18T23:51:29.790Z,13.80
2023-02-18T23:53:57.253Z,13.88
2023-02-18T23:56:24.889Z,14.40
2023-02-18T23:58:57.463Z,13.90
